sensor_id;sensor_type;location;lat;lon;timestamp;P1;durP1;ratioP1;P2;durP2;ratioP2
76123;SDS011;65173;48.066;20.976;2023-03-16T00:01:22;5.38;;;2.08;;
76123;SDS011;65173;48.066;20.976;2023-03-16T00:04:25;7.23;;;2.70;;
76123;SDS011;65173;48.066;20.976;2023-03-16T00:07:27;6.95;;;2.60;;
76123;SDS011;65173;48.066;20.976;2023-03-16T00:10:30;4.78;;;2.05;;
76123;SDS011;65173;48.066;20.976;2023-03-16T00:13:33;4.80;;;1.92;;
76123;SDS011;65173;48.066;20.976;2023-03-16T00:16:35;4.90;;;2.13;;
76123;SDS011;65173;48.066;20.976;2023-03-16T00:19:38;5.97;;;2.67;;
76123;SDS011;65173;48.066;20.976;2023-03-16T00:22:41;7.30;;;2.78;;
76123;SDS011;65173;48.066;20.976;2023-03-16T00:25:44;13.40;;;4.70;;
76123;SDS011;65173;48.066;20.976;2023-03-16T00:28:46;9.45;;;3.88;;
76123;SDS011;65173;48.066;20.976;2023-03-16T00:31:49;7.22;;;3.30;;
76123;SDS011;65173;48.066;20.976;2023-03-16T00:34:53;4.93;;;2.60;;
76123;SDS011;65173;48.066;20.976;2023-03-16T00:37:56;5.55;;;2.50;;
76123;SDS011;65173;48.066;20.976;2023-03-16T00:40:59;7.32;;;2.33;;
76123;SDS011;65173;48.066;20.976;2023-03-16T00:44:05;4.25;;;2.10;;
76123;SDS011;65173;48.066;20.976;2023-03-16T00:47:08;4.38;;;1.95;;
76123;SDS011;65173;48.066;20.976;2023-03-16T00:50:15;5.72;;;2.38;;
76123;SDS011;65173;48.066;20.976;2023-03-16T00:53:18;3.92;;;1.83;;
76123;SDS011;65173;48.066;20.976;2023-03-16T00:56:20;8.47;;;2.83;;
76123;SDS011;65173;48.066;20.976;2023-03-16T00:59:23;5.80;;;2.30;;
76123;SDS011;65173;48.066;20.976;2023-03-16T01:02:27;6.40;;;2.22;;
76123;SDS011;65173;48.066;20.976;2023-03-16T01:05:30;6.90;;;2.57;;
76123;SDS011;65173;48.066;20.976;2023-03-16T01:08:38;8.45;;;2.72;;
76123;SDS011;65173;48.066;20.976;2023-03-16T01:11:41;3.33;;;2.15;;
76123;SDS011;65173;48.066;20.976;2023-03-16T01:14:45;4.22;;;1.83;;
76123;SDS011;65173;48.066;20.976;2023-03-16T01:17:48;5.18;;;3.08;;
76123;SDS011;65173;48.066;20.976;2023-03-16T01:20:50;10.50;;;2.92;;
76123;SDS011;65173;48.066;20.976;2023-03-16T01:23:54;6.40;;;2.33;;
76123;SDS011;65173;48.066;20.976;2023-03-16T01:26:57;5.83;;;2.20;;
76123;SDS011;65173;48.066;20.976;2023-03-16T01:30:00;4.07;;;2.42;;
76123;SDS011;65173;48.066;20.976;2023-03-16T01:33:04;3.47;;;2.08;;
76123;SDS011;65173;48.066;20.976;2023-03-16T01:36:08;5.83;;;2.70;;
76123;SDS011;65173;48.066;20.976;2023-03-16T01:39:20;7.43;;;2.30;;
76123;SDS011;65173;48.066;20.976;2023-03-16T01:42:23;5.45;;;2.42;;
76123;SDS011;65173;48.066;20.976;2023-03-16T01:49:18;4.78;;;2.00;;
76123;SDS011;65173;48.066;20.976;2023-03-16T01:52:28;2.90;;;2.05;;
76123;SDS011;65173;48.066;20.976;2023-03-16T01:55:36;4.50;;;2.50;;
76123;SDS011;65173;48.066;20.976;2023-03-16T01:58:41;1.80;;;0.93;;
76123;SDS011;65173;48.066;20.976;2023-03-16T02:01:46;4.68;;;1.70;;
76123;SDS011;65173;48.066;20.976;2023-03-16T02:08:11;4.83;;;1.80;;
76123;SDS011;65173;48.066;20.976;2023-03-16T02:11:14;2.85;;;1.80;;
76123;SDS011;65173;48.066;20.976;2023-03-16T02:14:37;5.20;;;2.05;;
76123;SDS011;65173;48.066;20.976;2023-03-16T02:17:40;5.50;;;1.98;;
76123;SDS011;65173;48.066;20.976;2023-03-16T02:23:50;5.13;;;2.20;;
76123;SDS011;65173;48.066;20.976;2023-03-16T02:27:03;4.20;;;2.40;;
76123;SDS011;65173;48.066;20.976;2023-03-16T02:30:13;7.63;;;2.20;;
76123;SDS011;65173;48.066;20.976;2023-03-16T02:33:30;5.70;;;1.85;;
76123;SDS011;65173;48.066;20.976;2023-03-16T02:36:35;4.72;;;2.33;;
76123;SDS011;65173;48.066;20.976;2023-03-16T02:39:39;6.27;;;1.93;;
76123;SDS011;65173;48.066;20.976;2023-03-16T02:42:51;4.05;;;1.90;;
76123;SDS011;65173;48.066;20.976;2023-03-16T02:46:00;8.93;;;3.00;;
76123;SDS011;65173;48.066;20.976;2023-03-16T02:52:19;4.85;;;1.85;;
76123;SDS011;65173;48.066;20.976;2023-03-16T02:55:22;3.92;;;2.03;;
76123;SDS011;65173;48.066;20.976;2023-03-16T02:58:26;5.80;;;2.20;;
76123;SDS011;65173;48.066;20.976;2023-03-16T03:01:29;5.20;;;1.97;;
76123;SDS011;65173;48.066;20.976;2023-03-16T03:04:34;3.63;;;1.95;;
76123;SDS011;65173;48.066;20.976;2023-03-16T03:07:36;6.55;;;2.17;;
76123;SDS011;65173;48.066;20.976;2023-03-16T03:10:41;5.23;;;2.07;;
76123;SDS011;65173;48.066;20.976;2023-03-16T03:13:45;5.20;;;2.03;;
76123;SDS011;65173;48.066;20.976;2023-03-16T03:16:53;8.88;;;1.70;;
76123;SDS011;65173;48.066;20.976;2023-03-16T03:19:56;2.92;;;1.85;;
76123;SDS011;65173;48.066;20.976;2023-03-16T03:23:00;4.15;;;1.45;;
76123;SDS011;65173;48.066;20.976;2023-03-16T03:26:04;6.90;;;2.03;;
76123;SDS011;65173;48.066;20.976;2023-03-16T03:29:07;5.22;;;2.17;;
76123;SDS011;65173;48.066;20.976;2023-03-16T03:32:10;6.00;;;1.60;;
76123;SDS011;65173;48.066;20.976;2023-03-16T03:35:14;5.53;;;1.83;;
76123;SDS011;65173;48.066;20.976;2023-03-16T03:38:17;4.20;;;1.90;;
76123;SDS011;65173;48.066;20.976;2023-03-16T03:41:20;7.87;;;1.70;;
76123;SDS011;65173;48.066;20.976;2023-03-16T03:44:25;3.33;;;1.75;;
76123;SDS011;65173;48.066;20.976;2023-03-16T03:47:29;5.68;;;1.73;;
76123;SDS011;65173;48.066;20.976;2023-03-16T03:50:34;6.80;;;2.58;;
76123;SDS011;65173;48.066;20.976;2023-03-16T03:53:57;5.28;;;2.20;;
76123;SDS011;65173;48.066;20.976;2023-03-16T03:57:20;7.03;;;2.78;;
76123;SDS011;65173;48.066;20.976;2023-03-16T04:00:23;8.10;;;2.70;;
76123;SDS011;65173;48.066;20.976;2023-03-16T04:03:27;6.47;;;2.40;;
76123;SDS011;65173;48.066;20.976;2023-03-16T04:06:30;3.50;;;1.80;;
76123;SDS011;65173;48.066;20.976;2023-03-16T04:09:32;5.93;;;2.45;;
76123;SDS011;65173;48.066;20.976;2023-03-16T04:12:36;6.33;;;2.83;;
76123;SDS011;65173;48.066;20.976;2023-03-16T04:15:40;5.97;;;2.38;;
76123;SDS011;65173;48.066;20.976;2023-03-16T04:18:52;5.97;;;2.72;;
76123;SDS011;65173;48.066;20.976;2023-03-16T04:21:57;4.38;;;2.70;;
76123;SDS011;65173;48.066;20.976;2023-03-16T04:25:00;6.07;;;2.35;;
76123;SDS011;65173;48.066;20.976;2023-03-16T04:28:06;7.65;;;3.08;;
76123;SDS011;65173;48.066;20.976;2023-03-16T04:31:12;5.57;;;2.70;;
76123;SDS011;65173;48.066;20.976;2023-03-16T04:34:19;8.37;;;2.67;;
76123;SDS011;65173;48.066;20.976;2023-03-16T04:37:30;8.27;;;3.17;;
76123;SDS011;65173;48.066;20.976;2023-03-16T04:40:33;6.00;;;2.42;;
76123;SDS011;65173;48.066;20.976;2023-03-16T04:43:43;7.47;;;2.60;;
76123;SDS011;65173;48.066;20.976;2023-03-16T04:46:53;11.45;;;3.10;;
76123;SDS011;65173;48.066;20.976;2023-03-16T04:49:58;8.95;;;3.08;;
76123;SDS011;65173;48.066;20.976;2023-03-16T04:53:05;8.05;;;3.25;;
76123;SDS011;65173;48.066;20.976;2023-03-16T04:56:09;6.93;;;2.78;;
76123;SDS011;65173;48.066;20.976;2023-03-16T04:59:22;10.07;;;3.83;;
76123;SDS011;65173;48.066;20.976;2023-03-16T05:02:34;5.00;;;2.28;;
76123;SDS011;65173;48.066;20.976;2023-03-16T05:05:37;5.80;;;2.40;;
76123;SDS011;65173;48.066;20.976;2023-03-16T05:08:41;3.75;;;2.30;;
76123;SDS011;65173;48.066;20.976;2023-03-16T05:11:44;6.95;;;2.95;;
76123;SDS011;65173;48.066;20.976;2023-03-16T05:14:48;5.10;;;2.60;;
76123;SDS011;65173;48.066;20.976;2023-03-16T05:18:01;3.28;;;2.10;;
76123;SDS011;65173;48.066;20.976;2023-03-16T05:21:04;8.10;;;2.17;;
76123;SDS011;65173;48.066;20.976;2023-03-16T05:24:21;5.72;;;2.92;;
76123;SDS011;65173;48.066;20.976;2023-03-16T05:27:25;6.45;;;3.30;;
76123;SDS011;65173;48.066;20.976;2023-03-16T05:30:28;8.40;;;4.30;;
76123;SDS011;65173;48.066;20.976;2023-03-16T05:33:34;9.00;;;3.55;;
76123;SDS011;65173;48.066;20.976;2023-03-16T05:36:41;8.00;;;3.90;;
76123;SDS011;65173;48.066;20.976;2023-03-16T05:39:49;13.43;;;4.40;;
76123;SDS011;65173;48.066;20.976;2023-03-16T05:42:55;10.10;;;4.18;;
76123;SDS011;65173;48.066;20.976;2023-03-16T05:45:59;9.40;;;4.50;;
76123;SDS011;65173;48.066;20.976;2023-03-16T05:49:03;11.05;;;5.55;;
76123;SDS011;65173;48.066;20.976;2023-03-16T05:52:06;15.25;;;7.47;;
76123;SDS011;65173;48.066;20.976;2023-03-16T05:55:10;29.90;;;13.27;;
76123;SDS011;65173;48.066;20.976;2023-03-16T05:58:16;22.75;;;11.02;;
76123;SDS011;65173;48.066;20.976;2023-03-16T06:01:19;19.38;;;9.55;;
76123;SDS011;65173;48.066;20.976;2023-03-16T06:04:24;8.38;;;5.10;;
76123;SDS011;65173;48.066;20.976;2023-03-16T06:07:27;8.23;;;4.60;;
76123;SDS011;65173;48.066;20.976;2023-03-16T06:10:31;13.32;;;4.38;;
76123;SDS011;65173;48.066;20.976;2023-03-16T06:13:34;11.05;;;5.97;;
76123;SDS011;65173;48.066;20.976;2023-03-16T06:16:37;12.93;;;6.97;;
76123;SDS011;65173;48.066;20.976;2023-03-16T06:19:40;15.75;;;7.15;;
76123;SDS011;65173;48.066;20.976;2023-03-16T06:22:43;6.95;;;3.75;;
76123;SDS011;65173;48.066;20.976;2023-03-16T06:25:47;9.52;;;3.80;;
76123;SDS011;65173;48.066;20.976;2023-03-16T06:28:51;8.52;;;4.40;;
76123;SDS011;65173;48.066;20.976;2023-03-16T06:31:55;9.73;;;4.97;;
76123;SDS011;65173;48.066;20.976;2023-03-16T06:34:58;8.70;;;4.78;;
76123;SDS011;65173;48.066;20.976;2023-03-16T06:38:04;7.80;;;3.93;;
76123;SDS011;65173;48.066;20.976;2023-03-16T06:41:31;11.43;;;5.45;;
76123;SDS011;65173;48.066;20.976;2023-03-16T06:44:33;11.68;;;4.85;;
76123;SDS011;65173;48.066;20.976;2023-03-16T06:47:42;8.53;;;3.33;;
76123;SDS011;65173;48.066;20.976;2023-03-16T06:50:45;8.85;;;5.18;;
76123;SDS011;65173;48.066;20.976;2023-03-16T06:53:53;9.68;;;3.53;;
76123;SDS011;65173;48.066;20.976;2023-03-16T06:56:57;7.32;;;3.58;;
76123;SDS011;65173;48.066;20.976;2023-03-16T06:59:59;8.05;;;3.97;;
76123;SDS011;65173;48.066;20.976;2023-03-16T07:03:06;6.57;;;4.10;;
76123;SDS011;65173;48.066;20.976;2023-03-16T07:06:11;10.57;;;5.30;;
76123;SDS011;65173;48.066;20.976;2023-03-16T07:09:16;10.50;;;4.47;;
76123;SDS011;65173;48.066;20.976;2023-03-16T07:12:19;7.55;;;4.07;;
76123;SDS011;65173;48.066;20.976;2023-03-16T07:15:22;9.68;;;5.30;;
76123;SDS011;65173;48.066;20.976;2023-03-16T07:18:30;9.17;;;4.80;;
76123;SDS011;65173;48.066;20.976;2023-03-16T07:21:34;9.98;;;5.55;;
76123;SDS011;65173;48.066;20.976;2023-03-16T07:24:44;8.48;;;4.90;;
76123;SDS011;65173;48.066;20.976;2023-03-16T07:27:48;8.52;;;4.38;;
76123;SDS011;65173;48.066;20.976;2023-03-16T07:30:57;12.00;;;4.65;;
76123;SDS011;65173;48.066;20.976;2023-03-16T07:34:11;10.95;;;5.88;;
76123;SDS011;65173;48.066;20.976;2023-03-16T07:37:21;13.80;;;6.95;;
76123;SDS011;65173;48.066;20.976;2023-03-16T07:40:29;12.67;;;8.37;;
76123;SDS011;65173;48.066;20.976;2023-03-16T07:43:40;15.57;;;8.40;;
76123;SDS011;65173;48.066;20.976;2023-03-16T07:46:44;8.77;;;5.25;;
76123;SDS011;65173;48.066;20.976;2023-03-16T07:49:46;8.90;;;4.47;;
76123;SDS011;65173;48.066;20.976;2023-03-16T07:52:49;8.13;;;4.88;;
76123;SDS011;65173;48.066;20.976;2023-03-16T07:55:53;8.45;;;4.75;;
76123;SDS011;65173;48.066;20.976;2023-03-16T07:58:56;10.00;;;4.55;;
76123;SDS011;65173;48.066;20.976;2023-03-16T08:01:59;7.13;;;4.00;;
76123;SDS011;65173;48.066;20.976;2023-03-16T08:05:01;5.13;;;3.00;;
76123;SDS011;65173;48.066;20.976;2023-03-16T08:08:05;3.47;;;2.00;;
76123;SDS011;65173;48.066;20.976;2023-03-16T08:11:12;3.60;;;2.13;;
76123;SDS011;65173;48.066;20.976;2023-03-16T08:14:25;4.28;;;1.90;;
76123;SDS011;65173;48.066;20.976;2023-03-16T08:17:53;3.60;;;2.22;;
76123;SDS011;65173;48.066;20.976;2023-03-16T08:20:59;8.87;;;2.57;;
76123;SDS011;65173;48.066;20.976;2023-03-16T08:24:02;3.47;;;1.63;;
76123;SDS011;65173;48.066;20.976;2023-03-16T08:27:05;3.88;;;2.40;;
76123;SDS011;65173;48.066;20.976;2023-03-16T08:30:10;1.80;;;1.08;;
76123;SDS011;65173;48.066;20.976;2023-03-16T08:33:18;4.55;;;2.13;;
76123;SDS011;65173;48.066;20.976;2023-03-16T08:36:26;3.30;;;2.00;;
76123;SDS011;65173;48.066;20.976;2023-03-16T08:39:34;11.07;;;1.80;;
76123;SDS011;65173;48.066;20.976;2023-03-16T08:42:41;5.00;;;2.37;;
76123;SDS011;65173;48.066;20.976;2023-03-16T08:45:46;4.88;;;2.22;;
76123;SDS011;65173;48.066;20.976;2023-03-16T08:48:51;5.20;;;1.58;;
76123;SDS011;65173;48.066;20.976;2023-03-16T08:51:58;5.60;;;2.17;;
76123;SDS011;65173;48.066;20.976;2023-03-16T08:55:02;2.38;;;1.35;;
76123;SDS011;65173;48.066;20.976;2023-03-16T08:58:08;7.53;;;2.65;;
76123;SDS011;65173;48.066;20.976;2023-03-16T09:01:12;4.07;;;1.67;;
76123;SDS011;65173;48.066;20.976;2023-03-16T09:04:16;2.75;;;0.98;;
76123;SDS011;65173;48.066;20.976;2023-03-16T09:07:19;2.00;;;1.25;;
76123;SDS011;65173;48.066;20.976;2023-03-16T09:10:22;2.05;;;0.93;;
76123;SDS011;65173;48.066;20.976;2023-03-16T09:13:24;2.60;;;1.30;;
76123;SDS011;65173;48.066;20.976;2023-03-16T09:16:27;3.75;;;1.77;;
76123;SDS011;65173;48.066;20.976;2023-03-16T09:19:32;4.30;;;1.70;;
76123;SDS011;65173;48.066;20.976;2023-03-16T09:22:53;3.60;;;1.50;;
76123;SDS011;65173;48.066;20.976;2023-03-16T09:25:59;3.55;;;1.63;;
76123;SDS011;65173;48.066;20.976;2023-03-16T09:29:04;4.95;;;1.23;;
76123;SDS011;65173;48.066;20.976;2023-03-16T09:32:08;3.42;;;1.10;;
76123;SDS011;65173;48.066;20.976;2023-03-16T09:35:11;4.45;;;2.30;;
76123;SDS011;65173;48.066;20.976;2023-03-16T09:38:14;4.22;;;1.90;;
76123;SDS011;65173;48.066;20.976;2023-03-16T09:47:41;5.90;;;2.58;;
76123;SDS011;65173;48.066;20.976;2023-03-16T09:50:47;4.47;;;2.50;;
76123;SDS011;65173;48.066;20.976;2023-03-16T09:53:51;4.20;;;2.43;;
76123;SDS011;65173;48.066;20.976;2023-03-16T09:56:59;6.65;;;2.45;;
76123;SDS011;65173;48.066;20.976;2023-03-16T10:10:48;2.70;;;2.45;;
76123;SDS011;65173;48.066;20.976;2023-03-16T10:17:40;5.30;;;2.27;;
76123;SDS011;65173;48.066;20.976;2023-03-16T10:20:58;3.72;;;1.90;;
76123;SDS011;65173;48.066;20.976;2023-03-16T10:24:02;3.97;;;1.70;;
76123;SDS011;65173;48.066;20.976;2023-03-16T10:27:12;4.63;;;2.30;;
76123;SDS011;65173;48.066;20.976;2023-03-16T10:30:35;4.43;;;1.52;;
76123;SDS011;65173;48.066;20.976;2023-03-16T10:33:40;5.95;;;1.88;;
76123;SDS011;65173;48.066;20.976;2023-03-16T10:36:43;4.50;;;2.10;;
76123;SDS011;65173;48.066;20.976;2023-03-16T10:39:47;6.95;;;2.67;;
76123;SDS011;65173;48.066;20.976;2023-03-16T10:42:50;4.43;;;1.55;;
76123;SDS011;65173;48.066;20.976;2023-03-16T10:45:59;3.13;;;1.70;;
76123;SDS011;65173;48.066;20.976;2023-03-16T10:49:04;2.70;;;1.43;;
76123;SDS011;65173;48.066;20.976;2023-03-16T10:52:12;5.22;;;1.77;;
76123;SDS011;65173;48.066;20.976;2023-03-16T10:55:28;3.35;;;1.38;;
76123;SDS011;65173;48.066;20.976;2023-03-16T10:58:37;5.83;;;1.60;;
76123;SDS011;65173;48.066;20.976;2023-03-16T11:01:44;3.45;;;1.20;;
76123;SDS011;65173;48.066;20.976;2023-03-16T11:04:50;4.50;;;1.80;;
76123;SDS011;65173;48.066;20.976;2023-03-16T11:08:07;2.55;;;1.70;;
76123;SDS011;65173;48.066;20.976;2023-03-16T11:14:36;2.08;;;1.08;;
76123;SDS011;65173;48.066;20.976;2023-03-16T11:17:40;4.88;;;1.85;;
76123;SDS011;65173;48.066;20.976;2023-03-16T11:20:46;4.50;;;1.30;;
76123;SDS011;65173;48.066;20.976;2023-03-16T11:23:50;3.90;;;1.75;;
76123;SDS011;65173;48.066;20.976;2023-03-16T11:26:59;2.53;;;1.48;;
76123;SDS011;65173;48.066;20.976;2023-03-16T11:30:12;3.67;;;1.70;;
76123;SDS011;65173;48.066;20.976;2023-03-16T11:33:24;2.97;;;1.65;;
76123;SDS011;65173;48.066;20.976;2023-03-16T11:36:37;2.28;;;1.08;;
76123;SDS011;65173;48.066;20.976;2023-03-16T11:46:56;1.30;;;0.60;;
76123;SDS011;65173;48.066;20.976;2023-03-16T11:53:34;3.30;;;1.40;;
76123;SDS011;65173;48.066;20.976;2023-03-16T11:56:57;3.65;;;1.30;;
76123;SDS011;65173;48.066;20.976;2023-03-16T12:07:03;6.45;;;2.30;;
76123;SDS011;65173;48.066;20.976;2023-03-16T12:10:15;11.82;;;3.92;;
76123;SDS011;65173;48.066;20.976;2023-03-16T12:16:58;9.48;;;3.72;;
76123;SDS011;65173;48.066;20.976;2023-03-16T12:20:09;10.55;;;3.38;;
76123;SDS011;65173;48.066;20.976;2023-03-16T12:23:20;4.75;;;1.95;;
76123;SDS011;65173;48.066;20.976;2023-03-16T12:26:43;5.57;;;2.17;;
76123;SDS011;65173;48.066;20.976;2023-03-16T12:37:08;5.27;;;1.67;;
76123;SDS011;65173;48.066;20.976;2023-03-16T12:40:21;5.63;;;2.38;;
76123;SDS011;65173;48.066;20.976;2023-03-16T12:46:57;6.47;;;2.75;;
76123;SDS011;65173;48.066;20.976;2023-03-16T12:50:05;4.00;;;1.80;;
76123;SDS011;65173;48.066;20.976;2023-03-16T12:53:23;1.30;;;1.05;;
76123;SDS011;65173;48.066;20.976;2023-03-16T12:56:33;3.05;;;1.83;;
76123;SDS011;65173;48.066;20.976;2023-03-16T12:59:45;5.37;;;2.57;;
76123;SDS011;65173;48.066;20.976;2023-03-16T13:02:53;3.80;;;2.20;;
76123;SDS011;65173;48.066;20.976;2023-03-16T13:05:57;5.50;;;2.47;;
76123;SDS011;65173;48.066;20.976;2023-03-16T13:09:02;3.50;;;1.47;;
76123;SDS011;65173;48.066;20.976;2023-03-16T13:12:08;4.20;;;1.33;;
76123;SDS011;65173;48.066;20.976;2023-03-16T13:18:26;4.05;;;1.40;;
76123;SDS011;65173;48.066;20.976;2023-03-16T13:21:40;5.38;;;1.90;;
76123;SDS011;65173;48.066;20.976;2023-03-16T13:24:48;6.45;;;2.30;;
76123;SDS011;65173;48.066;20.976;2023-03-16T13:27:57;3.78;;;1.67;;
76123;SDS011;65173;48.066;20.976;2023-03-16T13:31:00;3.37;;;1.70;;
76123;SDS011;65173;48.066;20.976;2023-03-16T13:34:04;3.58;;;1.42;;
76123;SDS011;65173;48.066;20.976;2023-03-16T13:37:11;1.60;;;0.80;;
76123;SDS011;65173;48.066;20.976;2023-03-16T13:40:20;1.73;;;1.10;;
76123;SDS011;65173;48.066;20.976;2023-03-16T13:43:26;2.90;;;1.38;;
76123;SDS011;65173;48.066;20.976;2023-03-16T13:46:32;4.20;;;1.35;;
76123;SDS011;65173;48.066;20.976;2023-03-16T13:49:45;2.42;;;1.50;;
76123;SDS011;65173;48.066;20.976;2023-03-16T13:52:51;4.15;;;1.98;;
76123;SDS011;65173;48.066;20.976;2023-03-16T13:55:59;4.68;;;2.00;;
76123;SDS011;65173;48.066;20.976;2023-03-16T13:59:03;3.95;;;1.48;;
76123;SDS011;65173;48.066;20.976;2023-03-16T14:02:15;3.07;;;1.20;;
76123;SDS011;65173;48.066;20.976;2023-03-16T14:08:30;3.95;;;0.90;;
76123;SDS011;65173;48.066;20.976;2023-03-16T14:11:35;3.00;;;1.20;;
76123;SDS011;65173;48.066;20.976;2023-03-16T14:14:38;2.25;;;1.35;;
76123;SDS011;65173;48.066;20.976;2023-03-16T14:17:42;3.20;;;1.30;;
76123;SDS011;65173;48.066;20.976;2023-03-16T14:20:46;2.17;;;0.93;;
76123;SDS011;65173;48.066;20.976;2023-03-16T14:23:53;2.33;;;1.55;;
76123;SDS011;65173;48.066;20.976;2023-03-16T14:27:13;3.72;;;1.08;;
76123;SDS011;65173;48.066;20.976;2023-03-16T14:30:28;2.17;;;0.80;;
76123;SDS011;65173;48.066;20.976;2023-03-16T14:33:35;1.83;;;1.17;;
76123;SDS011;65173;48.066;20.976;2023-03-16T14:36:41;1.88;;;1.08;;
76123;SDS011;65173;48.066;20.976;2023-03-16T14:39:56;2.90;;;0.95;;
76123;SDS011;65173;48.066;20.976;2023-03-16T14:43:03;3.23;;;1.37;;
76123;SDS011;65173;48.066;20.976;2023-03-16T14:46:05;3.92;;;1.85;;
76123;SDS011;65173;48.066;20.976;2023-03-16T14:49:23;3.90;;;1.23;;
76123;SDS011;65173;48.066;20.976;2023-03-16T14:52:29;3.10;;;1.30;;
76123;SDS011;65173;48.066;20.976;2023-03-16T14:55:33;1.48;;;1.38;;
76123;SDS011;65173;48.066;20.976;2023-03-16T14:58:38;5.10;;;1.92;;
76123;SDS011;65173;48.066;20.976;2023-03-16T15:01:42;3.97;;;1.45;;
76123;SDS011;65173;48.066;20.976;2023-03-16T15:04:46;1.43;;;1.20;;
76123;SDS011;65173;48.066;20.976;2023-03-16T15:07:50;2.63;;;1.50;;
76123;SDS011;65173;48.066;20.976;2023-03-16T15:11:02;2.55;;;1.00;;
76123;SDS011;65173;48.066;20.976;2023-03-16T15:14:09;3.33;;;1.47;;
76123;SDS011;65173;48.066;20.976;2023-03-16T15:17:38;2.35;;;1.42;;
76123;SDS011;65173;48.066;20.976;2023-03-16T15:20:41;2.05;;;1.38;;
76123;SDS011;65173;48.066;20.976;2023-03-16T15:23:46;1.52;;;1.10;;
76123;SDS011;65173;48.066;20.976;2023-03-16T15:26:49;3.55;;;1.30;;
76123;SDS011;65173;48.066;20.976;2023-03-16T15:29:53;3.13;;;1.17;;
76123;SDS011;65173;48.066;20.976;2023-03-16T15:32:55;3.15;;;1.30;;
76123;SDS011;65173;48.066;20.976;2023-03-16T15:35:59;3.60;;;2.07;;
76123;SDS011;65173;48.066;20.976;2023-03-16T15:39:04;2.30;;;1.67;;
76123;SDS011;65173;48.066;20.976;2023-03-16T15:42:16;4.90;;;2.13;;
76123;SDS011;65173;48.066;20.976;2023-03-16T15:45:20;4.00;;;1.90;;
76123;SDS011;65173;48.066;20.976;2023-03-16T15:48:24;5.93;;;2.28;;
76123;SDS011;65173;48.066;20.976;2023-03-16T15:51:27;8.35;;;2.67;;
76123;SDS011;65173;48.066;20.976;2023-03-16T15:54:35;4.03;;;1.73;;
76123;SDS011;65173;48.066;20.976;2023-03-16T15:57:37;5.28;;;2.42;;
76123;SDS011;65173;48.066;20.976;2023-03-16T16:00:41;3.97;;;1.73;;
76123;SDS011;65173;48.066;20.976;2023-03-16T16:03:44;5.50;;;2.13;;
76123;SDS011;65173;48.066;20.976;2023-03-16T16:06:47;3.80;;;1.20;;
76123;SDS011;65173;48.066;20.976;2023-03-16T16:09:55;3.47;;;1.20;;
76123;SDS011;65173;48.066;20.976;2023-03-16T16:12:58;3.60;;;1.20;;
76123;SDS011;65173;48.066;20.976;2023-03-16T16:16:02;5.30;;;1.60;;
76123;SDS011;65173;48.066;20.976;2023-03-16T16:19:05;4.85;;;1.63;;
76123;SDS011;65173;48.066;20.976;2023-03-16T16:22:10;3.35;;;1.55;;
76123;SDS011;65173;48.066;20.976;2023-03-16T16:25:14;2.25;;;1.35;;
76123;SDS011;65173;48.066;20.976;2023-03-16T16:28:18;3.70;;;1.45;;
76123;SDS011;65173;48.066;20.976;2023-03-16T16:31:24;3.60;;;1.73;;
76123;SDS011;65173;48.066;20.976;2023-03-16T16:34:29;3.20;;;1.27;;
76123;SDS011;65173;48.066;20.976;2023-03-16T16:37:32;4.63;;;1.80;;
76123;SDS011;65173;48.066;20.976;2023-03-16T16:40:35;2.33;;;1.33;;
76123;SDS011;65173;48.066;20.976;2023-03-16T16:43:42;1.77;;;1.38;;
76123;SDS011;65173;48.066;20.976;2023-03-16T16:46:48;3.00;;;1.17;;
76123;SDS011;65173;48.066;20.976;2023-03-16T16:49:53;3.53;;;1.70;;
76123;SDS011;65173;48.066;20.976;2023-03-16T16:52:55;3.83;;;1.60;;
76123;SDS011;65173;48.066;20.976;2023-03-16T16:55:58;4.50;;;2.15;;
76123;SDS011;65173;48.066;20.976;2023-03-16T16:59:06;3.15;;;1.90;;
76123;SDS011;65173;48.066;20.976;2023-03-16T17:05:45;5.40;;;2.38;;
76123;SDS011;65173;48.066;20.976;2023-03-16T17:08:48;5.73;;;1.83;;
76123;SDS011;65173;48.066;20.976;2023-03-16T17:11:51;4.72;;;2.17;;
76123;SDS011;65173;48.066;20.976;2023-03-16T17:14:57;4.18;;;1.83;;
76123;SDS011;65173;48.066;20.976;2023-03-16T17:18:05;4.00;;;2.27;;
76123;SDS011;65173;48.066;20.976;2023-03-16T17:21:12;4.35;;;2.15;;
76123;SDS011;65173;48.066;20.976;2023-03-16T17:24:17;6.43;;;2.58;;
76123;SDS011;65173;48.066;20.976;2023-03-16T17:27:27;3.00;;;2.00;;
76123;SDS011;65173;48.066;20.976;2023-03-16T17:30:32;4.88;;;2.42;;
76123;SDS011;65173;48.066;20.976;2023-03-16T17:33:35;4.38;;;2.95;;
76123;SDS011;65173;48.066;20.976;2023-03-16T17:36:38;7.60;;;2.70;;
76123;SDS011;65173;48.066;20.976;2023-03-16T17:39:42;3.67;;;2.20;;
76123;SDS011;65173;48.066;20.976;2023-03-16T17:42:46;5.10;;;2.10;;
76123;SDS011;65173;48.066;20.976;2023-03-16T17:45:50;5.63;;;2.85;;
76123;SDS011;65173;48.066;20.976;2023-03-16T17:48:54;7.33;;;2.67;;
76123;SDS011;65173;48.066;20.976;2023-03-16T17:51:57;3.70;;;2.35;;
76123;SDS011;65173;48.066;20.976;2023-03-16T17:55:00;4.68;;;2.45;;
76123;SDS011;65173;48.066;20.976;2023-03-16T17:58:03;6.38;;;2.90;;
76123;SDS011;65173;48.066;20.976;2023-03-16T18:01:08;3.65;;;2.47;;
76123;SDS011;65173;48.066;20.976;2023-03-16T18:04:20;6.20;;;2.97;;
76123;SDS011;65173;48.066;20.976;2023-03-16T18:07:24;6.78;;;3.15;;
76123;SDS011;65173;48.066;20.976;2023-03-16T18:10:28;6.50;;;3.10;;
76123;SDS011;65173;48.066;20.976;2023-03-16T18:13:36;8.10;;;3.33;;
76123;SDS011;65173;48.066;20.976;2023-03-16T18:16:41;6.47;;;3.20;;
76123;SDS011;65173;48.066;20.976;2023-03-16T18:19:44;8.97;;;4.17;;
76123;SDS011;65173;48.066;20.976;2023-03-16T18:22:48;9.32;;;4.10;;
76123;SDS011;65173;48.066;20.976;2023-03-16T18:25:52;17.38;;;5.55;;
76123;SDS011;65173;48.066;20.976;2023-03-16T18:28:56;14.85;;;7.50;;
76123;SDS011;65173;48.066;20.976;2023-03-16T18:32:01;23.38;;;9.02;;
76123;SDS011;65173;48.066;20.976;2023-03-16T18:35:04;19.42;;;7.70;;
76123;SDS011;65173;48.066;20.976;2023-03-16T18:38:14;13.32;;;5.43;;
76123;SDS011;65173;48.066;20.976;2023-03-16T18:41:21;14.90;;;6.13;;
76123;SDS011;65173;48.066;20.976;2023-03-16T18:44:25;8.15;;;3.40;;
76123;SDS011;65173;48.066;20.976;2023-03-16T18:47:29;8.52;;;4.57;;
76123;SDS011;65173;48.066;20.976;2023-03-16T18:50:34;7.80;;;4.10;;
76123;SDS011;65173;48.066;20.976;2023-03-16T18:53:37;6.13;;;3.45;;
76123;SDS011;65173;48.066;20.976;2023-03-16T18:56:40;14.35;;;5.07;;
76123;SDS011;65173;48.066;20.976;2023-03-16T18:59:44;11.45;;;4.80;;
76123;SDS011;65173;48.066;20.976;2023-03-16T19:02:48;9.00;;;4.43;;
76123;SDS011;65173;48.066;20.976;2023-03-16T19:05:54;18.88;;;9.30;;
76123;SDS011;65173;48.066;20.976;2023-03-16T19:09:06;10.70;;;4.78;;
76123;SDS011;65173;48.066;20.976;2023-03-16T19:12:17;11.10;;;4.50;;
76123;SDS011;65173;48.066;20.976;2023-03-16T19:15:24;11.02;;;4.70;;
76123;SDS011;65173;48.066;20.976;2023-03-16T19:18:29;8.70;;;3.47;;
76123;SDS011;65173;48.066;20.976;2023-03-16T19:21:32;11.13;;;4.73;;
76123;SDS011;65173;48.066;20.976;2023-03-16T19:24:43;5.75;;;2.72;;
76123;SDS011;65173;48.066;20.976;2023-03-16T19:27:50;10.25;;;5.00;;
76123;SDS011;65173;48.066;20.976;2023-03-16T19:30:54;19.42;;;7.07;;
76123;SDS011;65173;48.066;20.976;2023-03-16T19:33:58;21.08;;;9.40;;
76123;SDS011;65173;48.066;20.976;2023-03-16T19:37:02;24.70;;;10.20;;
76123;SDS011;65173;48.066;20.976;2023-03-16T19:40:05;24.50;;;10.55;;
76123;SDS011;65173;48.066;20.976;2023-03-16T19:43:18;25.97;;;11.93;;